Time;durP1;ratioP1;P1;durP2;ratioP2;P2;SDS_P1;SDS_P2;PMS_P1;PMS_P2;Temp;Humidity;BMP_temperature;BMP_pressure;BME280_temperature;BME280_humidity;BME280_pressure;Samples;Min_cycle;Max_cycle;Signal;HPM_P1;HPM_P2
2021/08/28 00:00:09;;;;;;;1.47;1.37;;;;;;;23.81;43.62;98433.97;5046819;28;20182;-51
2021/08/28 00:02:36;;;;;;;1.20;1.20;;;;;;;23.81;43.62;98435.84;5047097;28;20214;-51
2021/08/28 00:05:03;;;;;;;1.67;1.57;;;;;;;23.80;43.65;98437.66;5046852;28;20182;-52
2021/08/28 00:07:29;;;;;;;1.50;1.40;;;;;;;23.79;43.61;98432.53;5046855;28;20186;-52
2021/08/28 00:09:56;;;;;;;1.50;1.40;;;;;;;23.75;43.80;98429.44;5046279;28;20206;-51
2021/08/28 00:12:22;;;;;;;1.50;1.40;;;;;;;23.77;43.62;98431.91;5046647;28;20217;-51
2021/08/28 00:14:49;;;;;;;1.50;1.40;;;;;;;23.80;43.65;98432.34;5046135;28;20221;-52
2021/08/28 00:17:15;;;;;;;1.33;1.23;;;;;;;23.84;43.60;98434.59;5046378;28;20194;-53
2021/08/28 00:19:44;;;;;;;1.43;1.33;;;;;;;23.90;43.33;98437.31;5045372;28;20213;-54
2021/08/28 00:22:11;;;;;;;1.43;1.37;;;;;;;23.93;43.35;98434.25;5044723;28;20254;-51
2021/08/28 00:24:37;;;;;;;1.23;1.20;;;;;;;23.94;42.96;98435.06;5045761;28;20197;-51
2021/08/28 00:27:04;;;;;;;1.50;1.40;;;;;;;23.88;43.53;98439.34;5046457;28;20190;-53
2021/08/28 00:29:30;;;;;;;1.50;1.40;;;;;;;23.89;43.35;98441.00;5046068;28;20190;-53
2021/08/28 00:31:57;;;;;;;1.37;1.27;;;;;;;23.90;43.28;98439.16;5044753;28;20233;-53
2021/08/28 00:34:26;;;;;;;1.20;1.20;;;;;;;23.87;43.46;98439.53;5046961;28;20259;-52
2021/08/28 00:36:52;;;;;;;1.40;1.30;;;;;;;23.93;43.14;98426.25;5044811;28;20198;-51
2021/08/28 00:39:19;;;;;;;1.20;1.20;;;;;;;23.88;43.36;98426.03;5028904;28;20557;-51
2021/08/28 00:41:45;;;;;;;1.23;1.17;;;;;;;23.88;43.34;98422.53;5045429;28;20185;-54
2021/08/28 00:44:12;;;;;;;1.50;1.40;;;;;;;23.92;43.36;98429.13;5045537;28;20261;-51
2021/08/28 00:46:39;;;;;;;2.03;1.20;;;;;;;23.92;43.20;98432.59;5045724;28;20213;-52
2021/08/28 00:49:05;;;;;;;1.50;1.40;;;;;;;23.91;43.37;98438.16;5045977;28;20190;-52
2021/08/28 00:51:32;;;;;;;1.50;1.40;;;;;;;23.89;43.28;98440.19;5045485;28;20265;-53
2021/08/28 00:54:00;;;;;;;1.40;1.30;;;;;;;23.88;43.29;98422.53;5045430;28;20210;-52
2021/08/28 00:56:27;;;;;;;1.20;1.20;;;;;;;23.79;43.69;98425.38;5043686;28;20605;-52
2021/08/28 00:58:53;;;;;;;1.30;1.20;;;;;;;23.78;43.37;98433.53;5044279;28;20193;-52
2021/08/28 01:01:22;;;;;;;1.47;1.37;;;;;;;23.75;43.79;98429.44;5044159;28;20224;-53
2021/08/28 01:03:57;;;;;;;1.30;1.30;;;;;;;23.74;43.64;98427.81;5045247;28;20213;-53
2021/08/28 01:06:40;;;;;;;1.20;1.20;;;;;;;23.71;43.86;98430.03;5043617;28;20178;-52
2021/08/28 01:09:31;;;;;;;1.40;1.30;;;;;;;23.70;43.75;98429.19;5041330;28;20209;-52
2021/08/28 01:12:18;;;;;;;1.40;1.30;;;;;;;23.71;43.55;98432.69;5043361;28;20221;-53
2021/08/28 01:15:08;;;;;;;1.20;1.20;;;;;;;23.70;43.71;98429.19;5044337;28;20283;-52
2021/08/28 01:17:38;;;;;;;1.50;1.40;;;;;;;23.71;43.70;98430.03;5043342;28;20660;-52
2021/08/28 01:20:45;;;;;;;1.27;1.27;;;;;;;23.73;43.81;98428.81;5043764;28;20214;-52
2021/08/28 01:23:19;;;;;;;1.40;1.27;;;;;;;23.70;43.73;98423.88;5044015;28;20225;-53
2021/08/28 01:26:12;;;;;;;1.20;1.20;;;;;;;23.68;43.68;98423.25;5043404;28;20194;-52
2021/08/28 01:28:48;;;;;;;1.30;1.20;;;;;;;23.70;43.71;98421.19;5043396;28;20583;-52
2021/08/28 01:31:15;;;;;;;1.43;1.33;;;;;;;23.71;43.77;98422.84;5042781;28;20201;-52
2021/08/28 01:33:43;;;;;;;1.37;1.27;;;;;;;23.75;43.46;98415.28;5044111;28;20236;-52
2021/08/28 01:36:14;;;;;;;1.37;1.27;;;;;;;23.77;43.51;98411.41;5043625;28;20193;-53
2021/08/28 01:38:53;;;;;;;1.30;1.30;;;;;;;23.73;43.63;98415.50;5043128;28;20186;-51
2021/08/28 01:41:22;;;;;;;1.07;1.07;;;;;;;23.72;43.58;98418.34;5044110;28;20182;-53
2021/08/28 01:43:50;;;;;;;1.23;1.20;;;;;;;23.72;43.58;98426.34;5043029;28;20232;-51
2021/08/28 01:46:17;;;;;;;1.30;1.30;;;;;;;23.73;43.68;98426.16;5043078;28;20293;-52
2021/08/28 01:48:48;;;;;;;1.37;1.37;;;;;;;23.72;43.54;98421.00;5043656;28;20205;-52
2021/08/28 01:51:18;;;;;;;1.30;1.20;;;;;;;23.73;43.50;98426.16;5043702;28;20272;-52
2021/08/28 01:53:45;;;;;;;1.43;1.33;;;;;;;23.72;43.49;98421.84;5043297;28;20221;-51
2021/08/28 01:56:14;;;;;;;1.20;1.20;;;;;;;23.74;43.46;98425.13;5043844;28;20198;-51
2021/08/28 01:58:41;;;;;;;1.10;1.10;;;;;;;23.73;43.56;98431.50;5043925;28;20201;-51
2021/08/28 02:01:33;;;;;;;1.03;1.03;;;;;;;23.72;43.41;98423.69;5043345;28;20197;-54
2021/08/28 02:04:01;;;;;;;1.40;1.30;;;;;;;23.77;43.46;98421.25;5043135;28;20193;-54
2021/08/28 02:06:36;;;;;;;1.30;1.30;;;;;;;23.71;43.57;98416.72;5042555;28;20198;-53
2021/08/28 02:09:42;;;;;;;1.10;1.10;;;;;;;23.73;43.50;98426.16;5042467;28;20182;-52
2021/08/28 02:12:18;;;;;;;1.17;1.17;;;;;;;23.70;43.61;98431.06;5042526;28;20242;-51
2021/08/28 02:14:57;;;;;;;1.30;1.20;;;;;;;23.72;43.47;98426.34;5042749;28;20193;-52
2021/08/28 02:17:29;;;;;;;1.57;1.47;;;;;;;23.68;43.63;98417.91;5043242;28;20642;-51
2021/08/28 02:20:01;;;;;;;1.10;1.10;;;;;;;23.68;43.62;98421.41;5043722;28;20190;-51
2021/08/28 02:22:56;;;;;;;1.30;1.20;;;;;;;23.70;43.59;98420.41;5041282;28;20754;-51
2021/08/28 02:26:03;;;;;;;1.43;1.33;;;;;;;23.66;43.64;98414.63;5044186;28;20181;-51
2021/08/28 02:28:42;;;;;;;1.00;1.00;;;;;;;23.65;43.77;98421.81;5042047;28;20217;-51
2021/08/28 02:31:10;;;;;;;1.13;1.13;;;;;;;23.64;43.49;98425.50;5042610;28;20592;-51
2021/08/28 02:33:46;;;;;;;1.20;1.20;;;;;;;23.64;43.63;98420.16;5043471;28;20243;-51
2021/08/28 02:36:17;;;;;;;1.33;1.23;;;;;;;23.66;43.75;98419.94;5043891;28;20210;-53
2021/08/28 02:38:46;;;;;;;1.40;1.30;;;;;;;23.67;43.61;98426.94;5043366;28;20205;-51
2021/08/28 02:41:15;;;;;;;1.10;1.10;;;;;;;23.67;43.49;98424.25;5042978;28;20633;-51
2021/08/28 02:43:44;;;;;;;1.00;1.00;;;;;;;23.68;43.56;98423.25;5044391;28;20268;-52
2021/08/28 02:46:12;;;;;;;1.00;1.00;;;;;;;23.67;43.48;98427.75;5047543;28;20232;-52
2021/08/28 02:48:40;;;;;;;1.00;1.00;;;;;;;23.66;43.48;98425.28;5047899;28;20200;-51
2021/08/28 02:51:10;;;;;;;1.10;1.10;;;;;;;23.65;43.55;98423.63;5046758;28;20229;-52
2021/08/28 02:53:44;;;;;;;1.37;1.27;;;;;;;23.68;43.55;98428.56;5030282;28;20218;-52
2021/08/28 02:56:12;;;;;;;1.10;1.10;;;;;;;23.68;43.53;98433.91;5047215;28;20198;-52
2021/08/28 02:58:40;;;;;;;1.03;1.03;;;;;;;23.69;43.42;98440.88;5046830;28;20392;-51
2021/08/28 03:01:08;;;;;;;1.47;1.37;;;;;;;23.71;43.46;98432.69;5046759;28;20261;-51
2021/08/28 03:03:35;;;;;;;1.07;1.07;;;;;;;23.73;43.35;98428.81;5046020;28;20217;-53
2021/08/28 03:06:05;;;;;;;1.07;1.07;;;;;;;23.73;43.31;98423.50;5046470;28;20252;-52
2021/08/28 03:08:37;;;;;;;1.30;1.30;;;;;;;23.77;43.40;98416.75;5047382;28;20190;-52
2021/08/28 03:11:04;;;;;;;1.30;1.30;;;;;;;23.75;43.27;98423.28;5046117;28;20230;-51
2021/08/28 03:13:31;;;;;;;1.10;1.10;;;;;;;23.79;43.08;98422.69;5045864;28;20218;-54
2021/08/28 03:15:58;;;;;;;1.27;1.20;;;;;;;23.75;43.35;98412.63;5046695;28;20431;-53
2021/08/28 03:18:28;;;;;;;1.30;1.20;;;;;;;23.73;43.34;98418.16;5045680;28;20197;-52
2021/08/28 03:20:56;;;;;;;1.43;1.27;;;;;;;23.74;43.27;98411.81;5046607;28;20190;-51
2021/08/28 03:23:28;;;;;;;1.13;1.13;;;;;;;23.77;43.22;98415.91;5047337;28;20217;-53
2021/08/28 03:25:59;;;;;;;1.20;1.20;;;;;;;23.72;43.42;98424.50;5046137;28;20192;-52
2021/08/28 03:28:28;;;;;;;0.87;0.87;;;;;;;23.66;43.46;98411.97;5046065;28;20196;-51
2021/08/28 03:30:55;;;;;;;1.10;1.10;;;;;;;23.64;43.57;98414.00;5046626;28;20210;-51
2021/08/28 03:33:23;;;;;;;1.27;1.20;;;;;;;23.65;43.52;98407.66;5046152;28;20244;-52
2021/08/28 03:35:58;;;;;;;1.20;1.13;;;;;;;23.65;43.52;98410.31;5045677;28;20190;-53
2021/08/28 03:38:27;;;;;;;1.10;1.10;;;;;;;23.66;43.62;98409.28;5045298;28;20194;-53
2021/08/28 03:40:58;;;;;;;1.33;1.30;;;;;;;23.66;43.54;98409.28;5045362;28;20197;-52
2021/08/28 03:43:25;;;;;;;1.10;1.00;;;;;;;23.68;43.36;98413.41;5045087;28;20279;-52
2021/08/28 03:45:52;;;;;;;1.10;1.10;;;;;;;23.73;43.22;98417.34;5045745;28;20197;-54
2021/08/28 03:48:22;;;;;;;1.10;1.10;;;;;;;23.77;43.11;98419.41;5046905;28;20194;-52
2021/08/28 03:50:49;;;;;;;1.23;1.20;;;;;;;23.77;43.21;98410.59;5045900;28;20214;-52
2021/08/28 03:53:16;;;;;;;1.30;1.27;;;;;;;23.75;43.21;98412.63;5044611;28;20285;-52
2021/08/28 03:55:43;;;;;;;1.13;1.13;;;;;;;23.77;43.18;98416.75;5045828;28;20252;-51
2021/08/28 03:58:10;;;;;;;1.00;1.00;;;;;;;23.75;43.33;98412.63;5045512;28;20261;-53
2021/08/28 04:00:37;;;;;;;1.10;1.10;;;;;;;23.71;43.21;98414.84;5044949;28;20221;-51
2021/08/28 04:03:04;;;;;;;1.40;1.30;;;;;;;23.70;43.38;98421.19;5045858;28;20214;-51
2021/08/28 04:05:31;;;;;;;1.10;1.10;;;;;;;23.68;43.37;98428.56;5045497;28;20190;-51
2021/08/28 04:07:58;;;;;;;1.03;1.03;;;;;;;23.67;43.48;98425.09;5045311;28;20201;-52
2021/08/28 04:10:28;;;;;;;0.97;0.97;;;;;;;23.66;43.43;98426.13;5045019;28;20664;-52
2021/08/28 04:12:55;;;;;;;1.10;1.10;;;;;;;23.62;43.51;98419.50;5045225;28;20229;-52
2021/08/28 04:15:22;;;;;;;1.10;1.10;;;;;;;23.62;43.47;98421.38;5045629;28;20204;-51
2021/08/28 04:18:14;;;;;;;1.20;1.20;;;;;;;23.59;43.66;98419.91;5046514;28;20213;-51
2021/08/28 04:20:46;;;;;;;1.40;1.20;;;;;;;23.60;43.47;98418.88;5045272;28;20182;-52
2021/08/28 04:23:19;;;;;;;1.30;1.20;;;;;;;23.62;43.51;98413.38;5045350;28;20229;-51
2021/08/28 04:26:04;;;;;;;1.10;1.10;;;;;;;23.62;43.52;98421.38;5045849;28;20298;-51
2021/08/28 04:28:33;;;;;;;1.10;1.00;;;;;;;23.61;43.56;98423.19;5044905;28;20204;-52
2021/08/28 04:31:00;;;;;;;1.10;1.10;;;;;;;23.61;43.64;98423.19;5045836;28;20699;-53
2021/08/28 04:33:27;;;;;;;1.20;1.13;;;;;;;23.63;43.42;98425.69;5044772;28;20222;-53
2021/08/28 04:35:54;;;;;;;1.40;1.30;;;;;;;23.59;43.53;98424.44;5043886;28;20221;-51
2021/08/28 04:38:21;;;;;;;1.00;1.00;;;;;;;23.58;43.59;98422.78;5044376;28;20225;-51
2021/08/28 04:40:53;;;;;;;1.00;1.00;;;;;;;23.55;43.75;98413.34;5044189;28;20707;-52
2021/08/28 04:43:23;;;;;;;1.20;1.20;;;;;;;23.58;43.78;98425.44;5028774;28;20221;-51
2021/08/28 04:46:15;;;;;;;1.03;1.03;;;;;;;23.57;43.62;98424.63;5045748;28;20755;-53
2021/08/28 04:48:46;;;;;;;0.90;0.90;;;;;;;23.53;43.74;98426.84;5044042;28;20664;-54
2021/08/28 04:51:26;;;;;;;1.17;1.17;;;;;;;23.54;43.65;98428.47;5044445;28;20220;-54
2021/08/28 04:53:52;;;;;;;1.00;1.00;;;;;;;23.50;43.65;98440.53;5045395;28;20213;-51
2021/08/28 04:56:19;;;;;;;1.30;1.20;;;;;;;23.49;43.73;98435.44;5044629;28;20195;-50
2021/08/28 04:58:45;;;;;;;1.30;1.30;;;;;;;23.50;43.75;98431.75;5045717;28;20201;-52
2021/08/28 05:01:50;;;;;;;1.10;1.10;;;;;;;23.49;43.67;98438.91;5022887;28;20237;-53
2021/08/28 05:04:39;;;;;;;1.23;1.13;;;;;;;23.50;43.67;98443.22;5023638;28;20203;-54
2021/08/28 05:07:06;;;;;;;1.10;1.10;;;;;;;23.47;43.69;98440.94;5034984;28;20735;-53
2021/08/28 05:09:59;;;;;;;1.00;1.00;;;;;;;23.45;43.75;98440.31;5044449;28;20212;-52
2021/08/28 05:12:25;;;;;;;1.20;1.20;;;;;;;23.53;43.63;98448.13;5043582;28;20237;-54
2021/08/28 05:15:02;;;;;;;1.20;1.20;;;;;;;23.53;43.73;98455.31;5043937;28;20190;-52
2021/08/28 05:17:32;;;;;;;1.10;1.10;;;;;;;23.50;43.75;98445.88;5044157;28;20213;-52
2021/08/28 05:19:58;;;;;;;1.30;1.30;;;;;;;23.50;43.76;98447.72;5043308;28;20194;-51
2021/08/28 05:22:36;;;;;;;1.10;1.10;;;;;;;23.50;43.58;98453.06;5043603;28;20281;-52
2021/08/28 05:25:26;;;;;;;1.20;1.20;;;;;;;23.50;43.75;98450.41;5041318;28;20224;-51
2021/08/28 05:27:54;;;;;;;1.37;1.27;;;;;;;23.51;43.53;98450.19;5027844;28;20197;-53
2021/08/28 05:30:20;;;;;;;1.00;1.00;;;;;;;23.51;43.58;98452.84;5043587;28;20304;-53
2021/08/28 05:32:47;;;;;;;1.00;1.00;;;;;;;23.48;43.71;98455.91;5043860;28;20225;-51
2021/08/28 05:35:14;;;;;;;1.20;1.20;;;;;;;23.50;43.64;98459.19;5043709;28;20252;-53
2021/08/28 05:38:12;;;;;;;1.33;1.23;;;;;;;23.49;43.70;98464.72;5043626;28;20208;-52
2021/08/28 05:40:38;;;;;;;1.00;1.00;;;;;;;23.48;43.74;98463.88;5043477;28;20202;-53
2021/08/28 05:43:05;;;;;;;1.00;1.00;;;;;;;23.48;43.64;98461.22;5042849;28;20280;-52
2021/08/28 05:46:05;;;;;;;1.03;1.03;;;;;;;23.46;43.83;98457.09;5033088;28;20229;-53
2021/08/28 05:48:50;;;;;;;0.97;0.97;;;;;;;23.48;43.64;98463.06;5044765;28;20193;-53
2021/08/28 05:51:40;;;;;;;1.47;1.37;;;;;;;23.44;43.91;98462.63;5038381;28;20265;-53
2021/08/28 05:54:06;;;;;;;1.03;1.03;;;;;;;23.42;43.75;98467.34;5043378;28;20197;-52
2021/08/28 05:56:33;;;;;;;1.00;1.00;;;;;;;23.40;43.91;98469.38;5043150;28;20233;-53
2021/08/28 05:59:00;;;;;;;1.30;1.20;;;;;;;23.39;43.82;98473.03;5043594;28;20676;-53
2021/08/28 06:01:28;;;;;;;1.20;1.20;;;;;;;23.44;43.78;98467.97;5042264;28;20716;-51
2021/08/28 06:03:54;;;;;;;1.10;1.00;;;;;;;23.50;43.76;98469.84;5044539;28;20212;-54
2021/08/28 06:06:41;;;;;;;1.20;1.17;;;;;;;23.55;43.54;98471.94;5044446;28;20237;-51
2021/08/28 06:09:45;;;;;;;1.10;1.10;;;;;;;23.59;43.58;98467.03;5043183;28;20204;-51
2021/08/28 06:12:38;;;;;;;1.10;1.10;;;;;;;23.68;43.30;98461.38;5044169;28;20249;-53
2021/08/28 06:15:23;;;;;;;1.30;1.20;;;;;;;23.67;43.43;98465.06;5043753;28;20197;-51
2021/08/28 06:17:55;;;;;;;1.00;1.00;;;;;;;23.72;43.30;98464.47;5042227;28;20281;-53
2021/08/28 06:20:22;;;;;;;1.13;1.13;;;;;;;23.71;43.25;98460.13;5042705;28;20198;-53
2021/08/28 06:22:48;;;;;;;1.10;1.10;;;;;;;23.73;43.23;98463.47;5042135;28;20236;-49
2021/08/28 06:25:18;;;;;;;1.10;1.10;;;;;;;23.72;43.30;98463.63;5041832;28;20194;-52
2021/08/28 06:27:44;;;;;;;1.13;1.10;;;;;;;23.77;43.22;98458.53;5042318;28;20236;-54
2021/08/28 06:30:14;;;;;;;1.10;1.10;;;;;;;23.85;43.14;98463.72;5040781;28;20610;-54
2021/08/28 06:32:41;;;;;;;1.00;1.00;;;;;;;23.82;43.19;98456.13;5041005;28;20767;-52
2021/08/28 06:35:10;;;;;;;1.40;1.10;;;;;;;23.81;43.37;98454.50;5041161;28;20233;-53
2021/08/28 06:37:41;;;;;;;3.23;0.93;;;;;;;23.85;43.30;98460.22;5042113;28;20217;-53
2021/08/28 06:40:45;;;;;;;1.10;1.10;;;;;;;23.89;43.29;98456.97;5043267;28;20288;-54
2021/08/28 06:43:31;;;;;;;1.00;1.00;;;;;;;23.96;43.19;98451.69;5043340;28;20271;-51
2021/08/28 06:46:20;;;;;;;0.83;0.83;;;;;;;23.99;43.11;98451.28;5023858;28;20827;-51
2021/08/28 06:49:08;;;;;;;1.00;1.00;;;;;;;24.03;43.02;98446.44;5036509;28;20202;-51
2021/08/28 06:51:54;;;;;;;0.90;0.90;;;;;;;24.04;43.00;98448.06;5043675;28;20201;-54
2021/08/28 06:54:47;;;;;;;1.27;1.17;;;;;;;24.09;42.97;98451.78;5042191;28;20268;-51
2021/08/28 06:57:49;;;;;;;0.87;0.87;;;;;;;24.08;43.07;98455.47;5040828;28;20252;-52
2021/08/28 07:00:26;;;;;;;1.00;1.00;;;;;;;24.13;42.95;98446.06;5039805;28;20648;-52
2021/08/28 07:03:12;;;;;;;1.03;1.00;;;;;;;24.12;42.89;98450.56;5043307;28;20249;-53
2021/08/28 07:05:43;;;;;;;1.07;1.07;;;;;;;24.13;42.98;98454.06;5042669;28;20190;-51
2021/08/28 07:08:23;;;;;;;1.00;1.00;;;;;;;24.07;43.26;98464.50;5041580;28;20197;-51
2021/08/28 07:10:50;;;;;;;1.27;1.17;;;;;;;24.07;43.26;98453.00;5041942;28;20269;-54
2021/08/28 07:13:16;;;;;;;1.37;1.27;;;;;;;24.05;43.32;98466.53;5041884;28;20581;-51
2021/08/28 07:15:43;;;;;;;1.30;1.20;;;;;;;24.05;43.30;98460.38;5040729;28;20190;-52
2021/08/28 07:18:15;;;;;;;1.77;1.33;;;;;;;24.06;43.33;98457.53;5041167;28;20186;-51
2021/08/28 07:20:42;;;;;;;1.50;1.40;;;;;;;24.00;43.40;98460.94;5045365;28;20205;-52
2021/08/28 07:23:11;;;;;;;0.80;0.80;;;;;;;24.01;43.53;98457.25;5041616;28;20210;-51
2021/08/28 07:25:57;;;;;;;1.30;1.20;;;;;;;24.06;43.50;98446.88;5042545;28;20228;-51
2021/08/28 07:28:24;;;;;;;1.50;1.40;;;;;;;24.06;43.58;98452.19;5041984;28;20582;-51
2021/08/28 07:31:03;;;;;;;2.27;1.67;;;;;;;23.99;43.71;98451.28;5048931;28;20270;-53
2021/08/28 07:33:31;;;;;;;1.43;1.33;;;;;;;24.01;43.78;98454.56;5047704;28;20229;-53
2021/08/28 07:35:58;;;;;;;2.30;1.70;;;;;;;23.99;43.88;98451.28;5047959;28;20189;-51
2021/08/28 07:38:25;;;;;;;1.70;1.60;;;;;;;23.98;44.15;98444.31;5049214;28;20178;-50
2021/08/28 07:40:52;;;;;;;1.50;1.40;;;;;;;23.99;44.10;98451.28;5047545;28;20213;-53
2021/08/28 07:43:20;;;;;;;2.80;1.50;;;;;;;23.96;44.40;98457.03;5044909;28;20224;-49
2021/08/28 07:45:52;;;;;;;1.60;1.50;;;;;;;23.98;44.28;98457.66;5047188;28;20198;-52
2021/08/28 07:48:24;;;;;;;1.97;1.37;;;;;;;23.99;44.16;98455.81;5047210;28;20601;-51
2021/08/28 07:50:51;;;;;;;1.30;1.23;;;;;;;23.99;44.37;98456.63;5046676;28;20197;-49
2021/08/28 07:53:18;;;;;;;1.50;1.40;;;;;;;23.99;44.38;98456.63;5044316;28;20237;-52
2021/08/28 07:55:49;;;;;;;2.53;1.43;;;;;;;24.01;44.26;98459.91;5047019;28;20265;-51
2021/08/28 07:58:17;;;;;;;1.33;1.23;;;;;;;24.04;44.38;98454.22;5045915;28;20197;-50
2021/08/28 08:00:43;;;;;;;1.90;1.40;;;;;;;24.03;44.25;98455.22;5047273;28;20558;-50
2021/08/28 08:03:10;;;;;;;1.37;1.27;;;;;;;24.03;44.21;98449.09;5044928;28;20210;-52
2021/08/28 08:05:56;;;;;;;1.40;1.30;;;;;;;24.02;44.41;98456.25;5046933;28;20185;-49
2021/08/28 08:08:41;;;;;;;2.33;1.50;;;;;;;24.01;44.20;98454.56;5046748;28;20269;-52
2021/08/28 08:11:40;;;;;;;1.70;1.47;;;;;;;24.02;44.38;98461.59;5032831;28;20301;-48
2021/08/28 08:14:25;;;;;;;1.57;1.40;;;;;;;24.02;44.49;98460.75;5047024;28;20273;-51
2021/08/28 08:17:12;;;;;;;1.50;1.40;;;;;;;24.02;44.30;98468.75;5046029;28;20202;-52
2021/08/28 08:19:47;;;;;;;1.40;1.30;;;;;;;24.03;44.26;98471.22;5046550;28;20197;-50
2021/08/28 08:22:32;;;;;;;1.50;1.40;;;;;;;23.99;44.25;98469.94;5046855;28;20247;-50
2021/08/28 08:25:19;;;;;;;1.50;1.40;;;;;;;24.03;44.16;98473.88;5046067;28;20556;-50
2021/08/28 08:28:14;;;;;;;1.30;1.20;;;;;;;24.03;44.13;98467.75;5045924;28;20210;-49
2021/08/28 08:31:14;;;;;;;1.50;1.40;;;;;;;24.05;44.05;98463.88;5034018;28;20621;-50
2021/08/28 08:33:41;;;;;;;1.60;1.50;;;;;;;23.99;44.15;98459.28;5045098;28;20210;-51
2021/08/28 08:36:12;;;;;;;1.60;1.50;;;;;;;23.99;44.05;98456.63;5045364;28;20221;-50
2021/08/28 08:38:38;;;;;;;2.37;1.67;;;;;;;24.02;43.98;98450.91;5044208;28;20206;-50
2021/08/28 08:41:05;;;;;;;1.40;1.30;;;;;;;24.03;43.98;98463.22;5044560;28;20205;-51
2021/08/28 08:43:35;;;;;;;1.47;1.17;;;;;;;24.01;43.98;98453.78;5043363;28;20229;-50
2021/08/28 08:46:02;;;;;;;1.70;1.30;;;;;;;24.02;43.93;98461.59;5044513;28;20213;-52
2021/08/28 08:48:32;;;;;;;1.47;1.37;;;;;;;24.05;43.84;98465.72;5044329;28;20194;-51
2021/08/28 08:50:59;;;;;;;1.50;1.40;;;;;;;24.06;43.93;98468.19;5043024;28;20202;-52
2021/08/28 08:53:51;;;;;;;1.40;1.30;;;;;;;24.03;43.96;98471.22;5043643;28;20714;-51
2021/08/28 08:57:07;;;;;;;1.53;1.40;;;;;;;24.03;44.02;98471.22;5044363;28;20174;-49
2021/08/28 09:00:23;;;;;;;1.57;1.47;;;;;;;24.03;43.79;98468.56;5043782;28;20671;-51
2021/08/28 09:03:39;;;;;;;1.70;1.60;;;;;;;24.03;43.96;98481.09;5043104;28;20248;-51
2021/08/28 09:06:56;;;;;;;1.60;1.47;;;;;;;23.98;43.92;98478.16;5045109;28;20307;-52
2021/08/28 09:10:12;;;;;;;1.70;1.50;;;;;;;23.93;43.91;98476.06;5059944;28;20244;-51
2021/08/28 09:12:41;;;;;;;1.80;1.70;;;;;;;23.95;44.06;98471.38;5043869;28;20692;-53
2021/08/28 09:15:12;;;;;;;2.23;1.60;;;;;;;24.02;43.86;98477.56;5043151;28;20242;-51
2021/08/28 09:17:42;;;;;;;1.60;1.50;;;;;;;24.07;43.73;98483.16;5042207;28;20190;-51
2021/08/28 09:20:21;;;;;;;2.20;1.50;;;;;;;24.10;43.77;98477.44;5044148;28;20190;-51
2021/08/28 09:22:48;;;;;;;1.40;1.30;;;;;;;24.09;43.77;98482.94;5042794;28;20256;-55
2021/08/28 09:25:23;;;;;;;1.70;1.60;;;;;;;24.08;44.47;98482.16;5043164;28;20190;-49
2021/08/28 09:27:51;;;;;;;3.23;1.80;;;;;;;24.09;45.03;98483.78;5044914;28;20212;-53
2021/08/28 09:30:22;;;;;;;2.20;1.80;;;;;;;24.08;45.62;98487.47;5046141;28;20204;-53
2021/08/28 09:32:56;;;;;;;3.83;2.00;;;;;;;24.07;46.13;98488.50;5046894;28;20217;-50
2021/08/28 09:35:28;;;;;;;2.93;1.80;;;;;;;24.04;46.86;98491.53;5044381;28;20189;-53
2021/08/28 09:37:59;;;;;;;2.27;1.80;;;;;;;23.96;47.31;98492.50;5044965;28;20189;-53
2021/08/28 09:40:32;;;;;;;3.27;1.90;;;;;;;23.95;47.08;98479.38;5046090;28;20661;-51
2021/08/28 09:43:20;;;;;;;2.83;2.10;;;;;;;23.98;47.05;98478.97;5045596;28;20214;-53
2021/08/28 09:45:48;;;;;;;2.27;1.90;;;;;;;24.06;46.85;98478.84;5046988;28;20208;-51
2021/08/28 09:48:17;;;;;;;2.10;1.90;;;;;;;24.06;46.85;98470.84;5046305;28;20190;-53
2021/08/28 09:50:49;;;;;;;1.70;1.60;;;;;;;24.04;46.86;98477.41;5046456;28;20185;-53
2021/08/28 09:53:34;;;;;;;1.90;1.60;;;;;;;24.07;46.61;98483.16;5045849;28;20267;-53
2021/08/28 09:56:03;;;;;;;1.83;1.60;;;;;;;24.05;46.34;98485.22;5047363;28;20186;-53
2021/08/28 09:58:32;;;;;;;2.17;1.63;;;;;;;24.03;46.16;98492.56;5045598;28;20190;-51
2021/08/28 10:01:01;;;;;;;1.40;1.30;;;;;;;24.02;46.06;98488.25;5046305;28;20240;-53
2021/08/28 10:03:29;;;;;;;1.60;1.50;;;;;;;24.02;45.77;98488.25;5046560;28;20206;-51
2021/08/28 10:05:57;;;;;;;1.90;1.80;;;;;;;24.04;45.74;98486.19;5043801;28;20724;-56
2021/08/28 10:08:24;;;;;;;2.00;1.80;;;;;;;24.05;45.82;98487.03;5042427;28;20190;-55
2021/08/28 10:10:51;;;;;;;1.67;1.57;;;;;;;24.01;45.79;98481.22;5043419;28;20190;-54
2021/08/28 10:13:30;;;;;;;1.70;1.43;;;;;;;23.99;45.90;98477.94;5043607;28;20221;-55
2021/08/28 10:15:57;;;;;;;2.13;1.57;;;;;;;23.98;45.85;98476.31;5043453;28;20194;-54
2021/08/28 10:18:25;;;;;;;1.70;1.60;;;;;;;23.99;45.73;98469.94;5043877;28;20197;-53
2021/08/28 10:20:56;;;;;;;1.93;1.77;;;;;;;24.07;45.50;98482.31;5042874;28;20194;-54
2021/08/28 10:23:26;;;;;;;1.60;1.50;;;;;;;24.08;45.54;98491.97;5044130;28;20202;-55
2021/08/28 10:25:54;;;;;;;1.83;1.67;;;;;;;24.05;45.29;98482.53;5044297;28;20178;-53
2021/08/28 10:28:22;;;;;;;1.60;1.50;;;;;;;24.05;45.41;98476.38;5042213;28;20194;-55
2021/08/28 10:30:49;;;;;;;1.60;1.50;;;;;;;23.99;45.53;98477.94;5043186;28;20723;-53
2021/08/28 10:33:16;;;;;;;1.70;1.60;;;;;;;24.01;45.46;98475.09;5042337;28;20217;-54
2021/08/28 10:35:43;;;;;;;2.80;1.50;;;;;;;24.02;45.47;98474.06;5044038;28;20196;-52
2021/08/28 10:38:11;;;;;;;1.67;1.57;;;;;;;24.04;45.36;98474.72;5043931;28;20714;-53
2021/08/28 10:40:39;;;;;;;1.90;1.67;;;;;;;24.04;45.25;98472.88;5043229;28;20193;-55
2021/08/28 10:43:08;;;;;;;1.80;1.70;;;;;;;24.05;45.12;98487.88;5043421;28;20228;-54
2021/08/28 10:45:37;;;;;;;1.50;1.40;;;;;;;24.06;44.89;98500.19;5044739;28;20186;-54
2021/08/28 10:48:23;;;;;;;2.07;1.93;;;;;;;24.02;45.26;98492.72;5043473;28;20189;-53
2021/08/28 10:50:53;;;;;;;1.70;1.60;;;;;;;23.99;45.44;98493.94;5042797;28;20198;-55
2021/08/28 10:53:21;;;;;;;1.93;1.77;;;;;;;23.98;44.98;98486.16;5043500;28;20225;-52
2021/08/28 10:55:49;;;;;;;2.00;1.70;;;;;;;23.94;45.10;98480.38;5042887;28;20209;-55
2021/08/28 10:58:18;;;;;;;2.27;2.07;;;;;;;23.91;45.38;98470.13;5044027;28;20190;-54
2021/08/28 11:00:55;;;;;;;1.80;1.70;;;;;;;23.98;45.20;98476.31;5042807;28;20190;-55
2021/08/28 11:03:35;;;;;;;1.90;1.80;;;;;;;23.99;45.22;98479.81;5043527;28;20206;-52
2021/08/28 11:06:21;;;;;;;1.80;1.70;;;;;;;24.05;45.01;98471.03;5046187;28;20246;-55
2021/08/28 11:08:51;;;;;;;2.87;2.23;;;;;;;24.08;45.11;98470.63;5045816;28;20200;-54
2021/08/28 11:11:21;;;;;;;2.13;2.00;;;;;;;24.09;45.04;98473.13;5045068;28;20185;-55
2021/08/28 11:13:54;;;;;;;3.13;1.67;;;;;;;24.15;45.03;98476.84;5043317;28;20221;-55
2021/08/28 11:16:39;;;;;;;2.00;1.67;;;;;;;24.13;44.86;98467.38;5040398;28;20182;-51
2021/08/28 11:19:08;;;;;;;2.13;1.83;;;;;;;24.12;44.97;98460.41;5046071;28;20209;-52
2021/08/28 11:21:45;;;;;;;2.13;1.93;;;;;;;24.12;45.03;98471.06;5045103;28;20208;-53
2021/08/28 11:24:15;;;;;;;1.90;1.80;;;;;;;24.10;45.04;98469.44;5044416;28;20175;-51
2021/08/28 11:26:42;;;;;;;1.90;1.80;;;;;;;24.12;44.90;98465.75;5044654;28;20194;-54
2021/08/28 11:29:22;;;;;;;2.00;1.90;;;;;;;24.13;44.96;98476.22;5043750;28;20248;-54
2021/08/28 11:32:13;;;;;;;2.27;1.87;;;;;;;24.14;44.80;98474.38;5045233;28;20174;-55
2021/08/28 11:34:51;;;;;;;1.93;1.83;;;;;;;24.05;45.04;98471.88;5043773;28;20672;-55
2021/08/28 11:37:23;;;;;;;2.20;1.90;;;;;;;24.05;44.98;98476.38;5043793;28;20182;-54
2021/08/28 11:39:50;;;;;;;1.90;1.80;;;;;;;24.02;44.96;98472.25;5044040;28;20209;-53
2021/08/28 11:42:17;;;;;;;2.07;1.90;;;;;;;24.02;44.99;98477.56;5043609;28;20209;-54
2021/08/28 11:44:51;;;;;;;1.77;1.67;;;;;;;24.03;45.24;98476.56;5043826;28;20194;-52
2021/08/28 11:47:19;;;;;;;1.90;1.80;;;;;;;24.01;45.02;98481.22;5044110;28;20178;-54
2021/08/28 11:49:50;;;;;;;3.10;1.83;;;;;;;23.96;45.14;98478.34;5043864;28;20665;-54
2021/08/28 11:52:17;;;;;;;1.70;1.60;;;;;;;23.98;44.87;98470.97;5042868;28;20218;-55
2021/08/28 11:54:45;;;;;;;2.27;1.70;;;;;;;24.02;44.59;98474.91;5044567;28;20217;-54
2021/08/28 11:57:13;;;;;;;1.80;1.70;;;;;;;24.04;44.55;98472.88;5044740;28;20201;-52
2021/08/28 11:59:41;;;;;;;1.87;1.77;;;;;;;24.02;44.61;98477.56;5044470;28;20268;-54
2021/08/28 12:02:07;;;;;;;1.70;1.60;;;;;;;24.01;44.61;98477.75;5044661;28;20232;-53
2021/08/28 12:04:36;;;;;;;2.00;1.90;;;;;;;24.01;44.44;98481.22;5045139;28;20228;-54